sensor_id;sensor_type;location;lat;lon;timestamp;temperature;humidity
13652;DHT22;6899;51.546;6.912;2023-11-21T00:01:02;6.30;99.90
13652;DHT22;6899;51.546;6.912;2023-11-21T00:03:30;6.30;99.90
13652;DHT22;6899;51.546;6.912;2023-11-21T00:05:57;6.40;99.90
13652;DHT22;6899;51.546;6.912;2023-11-21T00:08:25;6.50;99.90
13652;DHT22;6899;51.546;6.912;2023-11-21T00:10:53;6.60;99.90
13652;DHT22;6899;51.546;6.912;2023-11-21T00:13:20;6.70;99.90
13652;DHT22;6899;51.546;6.912;2023-11-21T00:15:47;6.70;99.90
13652;DHT22;6899;51.546;6.912;2023-11-21T00:18:15;6.70;99.90
13652;DHT22;6899;51.546;6.912;2023-11-21T00:20:42;6.70;99.90
13652;DHT22;6899;51.546;6.912;2023-11-21T00:23:08;6.80;99.90
13652;DHT22;6899;51.546;6.912;2023-11-21T00:25:37;6.80;99.90
13652;DHT22;6899;51.546;6.912;2023-11-21T00:28:04;6.80;99.90
13652;DHT22;6899;51.546;6.912;2023-11-21T00:30:31;6.80;99.90
13652;DHT22;6899;51.546;6.912;2023-11-21T00:32:58;6.70;99.90
13652;DHT22;6899;51.546;6.912;2023-11-21T00:35:25;6.70;99.90
13652;DHT22;6899;51.546;6.912;2023-11-21T00:37:52;6.60;99.90
13652;DHT22;6899;51.546;6.912;2023-11-21T00:40:19;6.50;99.90
13652;DHT22;6899;51.546;6.912;2023-11-21T00:42:48;6.50;99.90
13652;DHT22;6899;51.546;6.912;2023-11-21T00:45:15;6.40;99.90
13652;DHT22;6899;51.546;6.912;2023-11-21T00:47:42;6.40;99.90
13652;DHT22;6899;51.546;6.912;2023-11-21T00:50:09;6.40;99.90
13652;DHT22;6899;51.546;6.912;2023-11-21T00:52:36;6.40;99.90
13652;DHT22;6899;51.546;6.912;2023-11-21T00:55:03;6.40;99.90
13652;DHT22;6899;51.546;6.912;2023-11-21T00:57:29;6.40;99.90
13652;DHT22;6899;51.546;6.912;2023-11-21T00:59:58;6.50;99.90
13652;DHT22;6899;51.546;6.912;2023-11-21T01:02:25;6.50;99.90
13652;DHT22;6899;51.546;6.912;2023-11-21T01:04:52;6.40;99.90
13652;DHT22;6899;51.546;6.912;2023-11-21T01:07:19;6.40;99.90
13652;DHT22;6899;51.546;6.912;2023-11-21T01:09:46;6.50;99.90
13652;DHT22;6899;51.546;6.912;2023-11-21T01:12:14;6.50;99.90
13652;DHT22;6899;51.546;6.912;2023-11-21T01:14:41;6.50;99.90
13652;DHT22;6899;51.546;6.912;2023-11-21T01:17:09;6.50;99.90
13652;DHT22;6899;51.546;6.912;2023-11-21T01:19:36;6.50;99.90
13652;DHT22;6899;51.546;6.912;2023-11-21T01:22:03;6.50;99.90
13652;DHT22;6899;51.546;6.912;2023-11-21T01:24:30;6.50;99.90
13652;DHT22;6899;51.546;6.912;2023-11-21T01:26:57;6.50;99.90
13652;DHT22;6899;51.546;6.912;2023-11-21T01:29:23;6.60;99.90
13652;DHT22;6899;51.546;6.912;2023-11-21T01:31:53;6.60;99.90
13652;DHT22;6899;51.546;6.912;2023-11-21T01:34:21;6.60;99.90
13652;DHT22;6899;51.546;6.912;2023-11-21T01:36:48;6.60;99.90
13652;DHT22;6899;51.546;6.912;2023-11-21T01:39:15;6.60;99.90
13652;DHT22;6899;51.546;6.912;2023-11-21T01:41:49;6.60;99.90
13652;DHT22;6899;51.546;6.912;2023-11-21T01:44:17;6.60;99.90
13652;DHT22;6899;51.546;6.912;2023-11-21T01:46:45;6.70;99.90
13652;DHT22;6899;51.546;6.912;2023-11-21T01:49:13;6.70;99.90
13652;DHT22;6899;51.546;6.912;2023-11-21T01:51:43;6.80;99.90
13652;DHT22;6899;51.546;6.912;2023-11-21T01:54:12;6.80;99.90
13652;DHT22;6899;51.546;6.912;2023-11-21T01:56:39;6.80;99.90
13652;DHT22;6899;51.546;6.912;2023-11-21T01:59:06;6.80;99.90
13652;DHT22;6899;51.546;6.912;2023-11-21T02:01:33;6.80;99.90
13652;DHT22;6899;51.546;6.912;2023-11-21T02:04:00;6.80;99.90
13652;DHT22;6899;51.546;6.912;2023-11-21T02:06:27;6.90;99.90
13652;DHT22;6899;51.546;6.912;2023-11-21T02:09:05;6.90;99.90
13652;DHT22;6899;51.546;6.912;2023-11-21T02:11:32;6.90;99.90
13652;DHT22;6899;51.546;6.912;2023-11-21T02:14:00;6.90;99.90
13652;DHT22;6899;51.546;6.912;2023-11-21T02:16:27;6.90;99.90
13652;DHT22;6899;51.546;6.912;2023-11-21T02:18:57;6.80;99.90
13652;DHT22;6899;51.546;6.912;2023-11-21T02:21:25;6.80;99.90
13652;DHT22;6899;51.546;6.912;2023-11-21T02:23:53;6.80;99.90
13652;DHT22;6899;51.546;6.912;2023-11-21T02:26:20;6.80;99.90
13652;DHT22;6899;51.546;6.912;2023-11-21T02:28:47;6.80;99.90
13652;DHT22;6899;51.546;6.912;2023-11-21T02:31:16;6.80;99.90
13652;DHT22;6899;51.546;6.912;2023-11-21T02:33:44;6.80;99.90
13652;DHT22;6899;51.546;6.912;2023-11-21T02:36:11;6.80;99.90
13652;DHT22;6899;51.546;6.912;2023-11-21T02:38:38;6.80;99.90
13652;DHT22;6899;51.546;6.912;2023-11-21T02:41:06;6.80;99.90
13652;DHT22;6899;51.546;6.912;2023-11-21T02:43:33;6.90;99.90
13652;DHT22;6899;51.546;6.912;2023-11-21T02:46:00;6.90;99.90
13652;DHT22;6899;51.546;6.912;2023-11-21T02:48:27;6.90;99.90
13652;DHT22;6899;51.546;6.912;2023-11-21T02:50:54;6.90;99.90
13652;DHT22;6899;51.546;6.912;2023-11-21T02:53:20;6.80;99.90
13652;DHT22;6899;51.546;6.912;2023-11-21T02:55:50;6.80;99.90
13652;DHT22;6899;51.546;6.912;2023-11-21T02:58:19;6.70;99.90
13652;DHT22;6899;51.546;6.912;2023-11-21T03:00:45;6.60;99.90
13652;DHT22;6899;51.546;6.912;2023-11-21T03:03:12;6.60;99.90
13652;DHT22;6899;51.546;6.912;2023-11-21T03:05:40;6.50;99.90
13652;DHT22;6899;51.546;6.912;2023-11-21T03:08:06;6.50;99.90
13652;DHT22;6899;51.546;6.912;2023-11-21T03:10:35;6.50;99.90
13652;DHT22;6899;51.546;6.912;2023-11-21T03:13:02;6.40;99.90
13652;DHT22;6899;51.546;6.912;2023-11-21T03:15:31;6.40;99.90
13652;DHT22;6899;51.546;6.912;2023-11-21T03:17:58;6.30;99.90
13652;DHT22;6899;51.546;6.912;2023-11-21T03:20:25;6.30;99.90
13652;DHT22;6899;51.546;6.912;2023-11-21T03:22:51;6.40;99.90
13652;DHT22;6899;51.546;6.912;2023-11-21T03:25:18;6.50;99.90
13652;DHT22;6899;51.546;6.912;2023-11-21T03:27:46;6.50;99.90
13652;DHT22;6899;51.546;6.912;2023-11-21T03:30:12;6.40;99.90
13652;DHT22;6899;51.546;6.912;2023-11-21T03:32:41;6.50;99.90
13652;DHT22;6899;51.546;6.912;2023-11-21T03:35:08;6.50;99.90
13652;DHT22;6899;51.546;6.912;2023-11-21T03:37:35;6.60;99.90
13652;DHT22;6899;51.546;6.912;2023-11-21T03:40:04;6.70;99.90
13652;DHT22;6899;51.546;6.912;2023-11-21T03:42:33;6.70;99.90
13652;DHT22;6899;51.546;6.912;2023-11-21T03:45:00;6.70;99.90
13652;DHT22;6899;51.546;6.912;2023-11-21T03:47:28;6.70;99.90
13652;DHT22;6899;51.546;6.912;2023-11-21T03:49:56;6.70;99.90
13652;DHT22;6899;51.546;6.912;2023-11-21T03:52:24;6.60;99.90
13652;DHT22;6899;51.546;6.912;2023-11-21T03:54:50;6.60;99.90
13652;DHT22;6899;51.546;6.912;2023-11-21T03:57:17;6.70;99.90
13652;DHT22;6899;51.546;6.912;2023-11-21T03:59:44;6.70;99.90
13652;DHT22;6899;51.546;6.912;2023-11-21T04:02:11;6.80;99.90
13652;DHT22;6899;51.546;6.912;2023-11-21T04:04:38;6.80;99.90
13652;DHT22;6899;51.546;6.912;2023-11-21T04:07:06;6.80;99.90
13652;DHT22;6899;51.546;6.912;2023-11-21T04:09:33;6.90;99.90
13652;DHT22;6899;51.546;6.912;2023-11-21T04:12:00;7.00;99.90
13652;DHT22;6899;51.546;6.912;2023-11-21T04:14:27;7.00;99.90
13652;DHT22;6899;51.546;6.912;2023-11-21T04:16:54;7.10;99.90
13652;DHT22;6899;51.546;6.912;2023-11-21T04:19:21;7.00;99.90
13652;DHT22;6899;51.546;6.912;2023-11-21T04:21:47;7.00;99.90
13652;DHT22;6899;51.546;6.912;2023-11-21T04:24:16;7.00;99.90
13652;DHT22;6899;51.546;6.912;2023-11-21T04:26:43;7.00;99.90
13652;DHT22;6899;51.546;6.912;2023-11-21T04:29:10;7.00;99.90
13652;DHT22;6899;51.546;6.912;2023-11-21T04:31:37;7.00;99.90
13652;DHT22;6899;51.546;6.912;2023-11-21T04:34:04;6.90;99.90
13652;DHT22;6899;51.546;6.912;2023-11-21T04:36:34;6.70;99.90
13652;DHT22;6899;51.546;6.912;2023-11-21T04:39:01;6.60;99.90
13652;DHT22;6899;51.546;6.912;2023-11-21T04:41:29;6.50;99.90
13652;DHT22;6899;51.546;6.912;2023-11-21T04:43:57;6.40;99.90
13652;DHT22;6899;51.546;6.912;2023-11-21T04:46:24;6.30;99.90
13652;DHT22;6899;51.546;6.912;2023-11-21T04:48:51;6.10;99.90
13652;DHT22;6899;51.546;6.912;2023-11-21T04:51:17;6.00;99.90
13652;DHT22;6899;51.546;6.912;2023-11-21T04:53:44;5.90;99.90
13652;DHT22;6899;51.546;6.912;2023-11-21T04:56:11;5.80;99.90
13652;DHT22;6899;51.546;6.912;2023-11-21T04:58:39;5.70;99.90
13652;DHT22;6899;51.546;6.912;2023-11-21T05:01:07;5.70;99.90
13652;DHT22;6899;51.546;6.912;2023-11-21T05:03:34;5.70;99.90
13652;DHT22;6899;51.546;6.912;2023-11-21T05:06:01;5.70;99.90
13652;DHT22;6899;51.546;6.912;2023-11-21T05:08:27;5.60;99.90
13652;DHT22;6899;51.546;6.912;2023-11-21T05:10:53;5.50;99.90
13652;DHT22;6899;51.546;6.912;2023-11-21T05:13:22;5.50;99.90
13652;DHT22;6899;51.546;6.912;2023-11-21T05:15:54;5.50;99.90
13652;DHT22;6899;51.546;6.912;2023-11-21T05:18:21;5.50;99.90
13652;DHT22;6899;51.546;6.912;2023-11-21T05:20:48;5.60;99.90
13652;DHT22;6899;51.546;6.912;2023-11-21T05:23:16;5.70;99.90
13652;DHT22;6899;51.546;6.912;2023-11-21T05:25:42;5.70;99.90
13652;DHT22;6899;51.546;6.912;2023-11-21T05:28:09;5.60;99.90
13652;DHT22;6899;51.546;6.912;2023-11-21T05:30:36;5.60;99.90
13652;DHT22;6899;51.546;6.912;2023-11-21T05:33:05;5.60;99.90
13652;DHT22;6899;51.546;6.912;2023-11-21T05:35:32;5.60;99.90
13652;DHT22;6899;51.546;6.912;2023-11-21T05:37:59;5.60;99.90
13652;DHT22;6899;51.546;6.912;2023-11-21T05:40:26;5.60;99.90
13652;DHT22;6899;51.546;6.912;2023-11-21T05:42:55;5.70;99.90
13652;DHT22;6899;51.546;6.912;2023-11-21T05:45:22;5.70;99.90
13652;DHT22;6899;51.546;6.912;2023-11-21T05:47:49;5.60;99.90
13652;DHT22;6899;51.546;6.912;2023-11-21T05:50:17;5.60;99.90
13652;DHT22;6899;51.546;6.912;2023-11-21T05:52:45;5.60;99.90
13652;DHT22;6899;51.546;6.912;2023-11-21T05:55:12;5.70;99.90
13652;DHT22;6899;51.546;6.912;2023-11-21T05:57:40;5.80;99.90
13652;DHT22;6899;51.546;6.912;2023-11-21T06:00:09;5.90;99.90
13652;DHT22;6899;51.546;6.912;2023-11-21T06:02:39;5.90;99.90
13652;DHT22;6899;51.546;6.912;2023-11-21T06:05:07;6.00;99.90
13652;DHT22;6899;51.546;6.912;2023-11-21T06:07:36;6.00;99.90
13652;DHT22;6899;51.546;6.912;2023-11-21T06:10:03;6.00;99.90
13652;DHT22;6899;51.546;6.912;2023-11-21T06:12:32;6.10;99.90
13652;DHT22;6899;51.546;6.912;2023-11-21T06:15:01;6.10;99.90
13652;DHT22;6899;51.546;6.912;2023-11-21T06:17:30;6.10;99.90
13652;DHT22;6899;51.546;6.912;2023-11-21T06:19:57;6.10;99.90
13652;DHT22;6899;51.546;6.912;2023-11-21T06:22:25;6.10;99.90
13652;DHT22;6899;51.546;6.912;2023-11-21T06:24:53;6.20;99.90
13652;DHT22;6899;51.546;6.912;2023-11-21T06:27:20;6.40;99.90
13652;DHT22;6899;51.546;6.912;2023-11-21T06:29:47;6.50;99.90
13652;DHT22;6899;51.546;6.912;2023-11-21T06:32:13;6.60;99.90
13652;DHT22;6899;51.546;6.912;2023-11-21T06:34:42;6.60;99.90
13652;DHT22;6899;51.546;6.912;2023-11-21T06:37:08;6.60;99.90
13652;DHT22;6899;51.546;6.912;2023-11-21T06:39:35;6.60;99.90
13652;DHT22;6899;51.546;6.912;2023-11-21T06:42:04;6.50;99.90
13652;DHT22;6899;51.546;6.912;2023-11-21T06:44:31;6.50;99.90
13652;DHT22;6899;51.546;6.912;2023-11-21T06:46:59;6.50;99.90
13652;DHT22;6899;51.546;6.912;2023-11-21T06:49:26;6.60;99.90
13652;DHT22;6899;51.546;6.912;2023-11-21T06:51:53;6.70;99.90
13652;DHT22;6899;51.546;6.912;2023-11-21T06:54:21;6.80;99.90
13652;DHT22;6899;51.546;6.912;2023-11-21T06:56:48;7.00;99.90
13652;DHT22;6899;51.546;6.912;2023-11-21T06:59:16;6.90;99.90
13652;DHT22;6899;51.546;6.912;2023-11-21T07:01:43;7.00;99.90
13652;DHT22;6899;51.546;6.912;2023-11-21T07:04:10;7.00;99.90
13652;DHT22;6899;51.546;6.912;2023-11-21T07:06:37;7.10;99.90
13652;DHT22;6899;51.546;6.912;2023-11-21T07:09:04;7.10;99.90
13652;DHT22;6899;51.546;6.912;2023-11-21T07:11:30;7.10;99.90
13652;DHT22;6899;51.546;6.912;2023-11-21T07:13:58;7.00;99.90
13652;DHT22;6899;51.546;6.912;2023-11-21T07:16:26;7.00;99.90
13652;DHT22;6899;51.546;6.912;2023-11-21T07:18:53;7.10;99.90
13652;DHT22;6899;51.546;6.912;2023-11-21T07:21:20;7.10;99.90
13652;DHT22;6899;51.546;6.912;2023-11-21T07:23:47;7.20;99.90
13652;DHT22;6899;51.546;6.912;2023-11-21T07:26:14;7.30;99.90
13652;DHT22;6899;51.546;6.912;2023-11-21T07:28:41;7.30;99.90
13652;DHT22;6899;51.546;6.912;2023-11-21T07:31:07;7.30;99.90
13652;DHT22;6899;51.546;6.912;2023-11-21T07:33:37;7.30;99.90
13652;DHT22;6899;51.546;6.912;2023-11-21T07:36:05;7.40;99.90
13652;DHT22;6899;51.546;6.912;2023-11-21T07:38:32;7.40;99.90
13652;DHT22;6899;51.546;6.912;2023-11-21T07:40:59;7.50;99.90
13652;DHT22;6899;51.546;6.912;2023-11-21T07:43:26;7.50;99.90
13652;DHT22;6899;51.546;6.912;2023-11-21T07:46:00;7.60;99.90
13652;DHT22;6899;51.546;6.912;2023-11-21T07:48:28;7.70;99.90
13652;DHT22;6899;51.546;6.912;2023-11-21T07:50:56;7.80;99.90
13652;DHT22;6899;51.546;6.912;2023-11-21T07:53:23;7.90;99.90
13652;DHT22;6899;51.546;6.912;2023-11-21T07:55:50;8.00;99.90
13652;DHT22;6899;51.546;6.912;2023-11-21T07:58:17;8.10;99.90
13652;DHT22;6899;51.546;6.912;2023-11-21T08:00:44;8.20;99.90
13652;DHT22;6899;51.546;6.912;2023-11-21T08:03:13;8.20;99.90
13652;DHT22;6899;51.546;6.912;2023-11-21T08:05:40;8.20;99.90
13652;DHT22;6899;51.546;6.912;2023-11-21T08:08:08;8.20;99.90
13652;DHT22;6899;51.546;6.912;2023-11-21T08:10:35;8.30;99.90
13652;DHT22;6899;51.546;6.912;2023-11-21T08:13:02;8.40;99.90
13652;DHT22;6899;51.546;6.912;2023-11-21T08:15:29;8.40;99.90
13652;DHT22;6899;51.546;6.912;2023-11-21T08:17:57;8.40;99.90
13652;DHT22;6899;51.546;6.912;2023-11-21T08:20:24;8.40;99.90
13652;DHT22;6899;51.546;6.912;2023-11-21T08:22:51;8.30;99.90
13652;DHT22;6899;51.546;6.912;2023-11-21T08:25:20;8.30;99.90
13652;DHT22;6899;51.546;6.912;2023-11-21T08:27:47;8.40;99.90
13652;DHT22;6899;51.546;6.912;2023-11-21T08:30:14;8.40;99.90
13652;DHT22;6899;51.546;6.912;2023-11-21T08:32:42;8.50;99.90
13652;DHT22;6899;51.546;6.912;2023-11-21T08:35:10;8.70;99.90
13652;DHT22;6899;51.546;6.912;2023-11-21T08:37:38;8.80;99.90
13652;DHT22;6899;51.546;6.912;2023-11-21T08:40:06;8.80;99.90
13652;DHT22;6899;51.546;6.912;2023-11-21T08:42:36;8.90;99.90
13652;DHT22;6899;51.546;6.912;2023-11-21T08:45:03;9.10;99.90
13652;DHT22;6899;51.546;6.912;2023-11-21T08:47:34;9.10;99.90
13652;DHT22;6899;51.546;6.912;2023-11-21T08:50:02;9.20;99.90
13652;DHT22;6899;51.546;6.912;2023-11-21T08:52:29;9.30;99.90
13652;DHT22;6899;51.546;6.912;2023-11-21T08:54:56;9.30;99.90
13652;DHT22;6899;51.546;6.912;2023-11-21T08:57:23;9.30;99.90
13652;DHT22;6899;51.546;6.912;2023-11-21T08:59:51;9.20;99.90
13652;DHT22;6899;51.546;6.912;2023-11-21T09:02:20;8.90;99.90
13652;DHT22;6899;51.546;6.912;2023-11-21T09:04:49;9.00;99.90
13652;DHT22;6899;51.546;6.912;2023-11-21T09:07:16;9.10;99.90
13652;DHT22;6899;51.546;6.912;2023-11-21T09:09:44;9.40;99.90
13652;DHT22;6899;51.546;6.912;2023-11-21T09:12:11;9.30;99.90
13652;DHT22;6899;51.546;6.912;2023-11-21T09:14:38;9.20;99.90
13652;DHT22;6899;51.546;6.912;2023-11-21T09:17:06;9.20;99.90
13652;DHT22;6899;51.546;6.912;2023-11-21T09:19:36;9.10;99.90
13652;DHT22;6899;51.546;6.912;2023-11-21T09:22:03;9.00;99.90
13652;DHT22;6899;51.546;6.912;2023-11-21T09:24:30;9.10;99.90
13652;DHT22;6899;51.546;6.912;2023-11-21T09:26:57;9.10;99.90
13652;DHT22;6899;51.546;6.912;2023-11-21T09:29:25;9.00;99.90
13652;DHT22;6899;51.546;6.912;2023-11-21T09:31:52;9.00;99.90
13652;DHT22;6899;51.546;6.912;2023-11-21T09:34:21;9.00;99.90
13652;DHT22;6899;51.546;6.912;2023-11-21T09:36:48;9.10;99.90
13652;DHT22;6899;51.546;6.912;2023-11-21T09:39:16;9.10;99.90
13652;DHT22;6899;51.546;6.912;2023-11-21T09:41:48;9.00;99.90
13652;DHT22;6899;51.546;6.912;2023-11-21T09:44:18;8.80;99.90
13652;DHT22;6899;51.546;6.912;2023-11-21T09:46:48;8.80;99.90
13652;DHT22;6899;51.546;6.912;2023-11-21T09:49:17;8.90;99.90
13652;DHT22;6899;51.546;6.912;2023-11-21T09:51:47;9.00;99.90
13652;DHT22;6899;51.546;6.912;2023-11-21T09:54:15;8.90;99.90
13652;DHT22;6899;51.546;6.912;2023-11-21T09:56:44;9.00;99.90
13652;DHT22;6899;51.546;6.912;2023-11-21T09:59:13;9.10;99.90
13652;DHT22;6899;51.546;6.912;2023-11-21T10:01:42;9.30;99.90
13652;DHT22;6899;51.546;6.912;2023-11-21T10:04:09;9.30;99.90
13652;DHT22;6899;51.546;6.912;2023-11-21T10:06:38;9.70;99.90
13652;DHT22;6899;51.546;6.912;2023-11-21T10:09:07;9.80;99.90
13652;DHT22;6899;51.546;6.912;2023-11-21T10:11:39;10.00;99.90
13652;DHT22;6899;51.546;6.912;2023-11-21T10:14:08;10.00;99.90
13652;DHT22;6899;51.546;6.912;2023-11-21T10:16:38;9.70;99.90
13652;DHT22;6899;51.546;6.912;2023-11-21T10:19:06;9.70;99.90
13652;DHT22;6899;51.546;6.912;2023-11-21T10:21:34;9.90;99.90
13652;DHT22;6899;51.546;6.912;2023-11-21T10:24:01;9.90;99.90
13652;DHT22;6899;51.546;6.912;2023-11-21T10:26:30;10.10;99.90
13652;DHT22;6899;51.546;6.912;2023-11-21T10:29:00;10.20;99.90
13652;DHT22;6899;51.546;6.912;2023-11-21T10:31:29;10.20;99.90
13652;DHT22;6899;51.546;6.912;2023-11-21T10:34:11;10.20;99.90
13652;DHT22;6899;51.546;6.912;2023-11-21T10:36:38;10.10;99.90
13652;DHT22;6899;51.546;6.912;2023-11-21T10:39:05;9.80;99.90
13652;DHT22;6899;51.546;6.912;2023-11-21T10:41:33;9.80;99.90
13652;DHT22;6899;51.546;6.912;2023-11-21T10:44:01;9.80;99.90
13652;DHT22;6899;51.546;6.912;2023-11-21T10:46:30;9.90;99.90
13652;DHT22;6899;51.546;6.912;2023-11-21T10:48:57;10.10;99.90
13652;DHT22;6899;51.546;6.912;2023-11-21T10:51:24;10.30;99.90
13652;DHT22;6899;51.546;6.912;2023-11-21T10:53:52;10.30;99.90
13652;DHT22;6899;51.546;6.912;2023-11-21T10:56:23;10.30;99.90
13652;DHT22;6899;51.546;6.912;2023-11-21T10:58:52;10.70;99.90
13652;DHT22;6899;51.546;6.912;2023-11-21T11:01:19;10.80;99.90
13652;DHT22;6899;51.546;6.912;2023-11-21T11:03:47;10.70;99.90
13652;DHT22;6899;51.546;6.912;2023-11-21T11:06:15;11.00;99.90
13652;DHT22;6899;51.546;6.912;2023-11-21T11:08:43;10.90;99.90
13652;DHT22;6899;51.546;6.912;2023-11-21T11:11:11;11.00;99.90
13652;DHT22;6899;51.546;6.912;2023-11-21T11:13:43;10.80;99.90
13652;DHT22;6899;51.546;6.912;2023-11-21T11:16:12;10.40;99.90
13652;DHT22;6899;51.546;6.912;2023-11-21T11:18:42;10.30;99.90
13652;DHT22;6899;51.546;6.912;2023-11-21T11:21:19;10.30;99.90
13652;DHT22;6899;51.546;6.912;2023-11-21T11:24:00;10.10;99.90
13652;DHT22;6899;51.546;6.912;2023-11-21T11:26:39;10.20;99.90
13652;DHT22;6899;51.546;6.912;2023-11-21T11:29:17;10.30;99.90
13652;DHT22;6899;51.546;6.912;2023-11-21T11:31:55;10.30;99.90
13652;DHT22;6899;51.546;6.912;2023-11-21T11:34:29;10.70;99.90
13652;DHT22;6899;51.546;6.912;2023-11-21T11:37:01;11.10;99.90
13652;DHT22;6899;51.546;6.912;2023-11-21T11:39:36;11.20;99.90
13652;DHT22;6899;51.546;6.912;2023-11-21T11:42:05;11.10;99.90
13652;DHT22;6899;51.546;6.912;2023-11-21T11:44:50;11.10;99.90
13652;DHT22;6899;51.546;6.912;2023-11-21T11:47:25;11.20;99.90
13652;DHT22;6899;51.546;6.912;2023-11-21T11:50:02;11.10;99.90
13652;DHT22;6899;51.546;6.912;2023-11-21T11:52:40;11.00;99.90
13652;DHT22;6899;51.546;6.912;2023-11-21T11:55:08;10.70;99.90
13652;DHT22;6899;51.546;6.912;2023-11-21T11:57:39;10.80;99.90
13652;DHT22;6899;51.546;6.912;2023-11-21T12:00:13;10.90;99.90
13652;DHT22;6899;51.546;6.912;2023-11-21T12:02:48;11.10;99.90
13652;DHT22;6899;51.546;6.912;2023-11-21T12:05:16;11.10;99.90
13652;DHT22;6899;51.546;6.912;2023-11-21T12:07:46;11.00;99.90
13652;DHT22;6899;51.546;6.912;2023-11-21T12:10:14;10.90;99.90
13652;DHT22;6899;51.546;6.912;2023-11-21T12:12:44;11.10;99.90
13652;DHT22;6899;51.546;6.912;2023-11-21T12:15:12;11.10;99.90
13652;DHT22;6899;51.546;6.912;2023-11-21T12:17:42;10.90;99.90
13652;DHT22;6899;51.546;6.912;2023-11-21T12:20:11;10.90;99.90
13652;DHT22;6899;51.546;6.912;2023-11-21T12:22:43;10.80;99.90
13652;DHT22;6899;51.546;6.912;2023-11-21T12:25:13;10.70;99.90
13652;DHT22;6899;51.546;6.912;2023-11-21T12:27:42;10.60;99.90
13652;DHT22;6899;51.546;6.912;2023-11-21T12:30:11;10.40;99.90
13652;DHT22;6899;51.546;6.912;2023-11-21T12:32:41;10.40;99.90
13652;DHT22;6899;51.546;6.912;2023-11-21T12:35:10;10.10;99.90
13652;DHT22;6899;51.546;6.912;2023-11-21T12:37:38;10.00;99.90
13652;DHT22;6899;51.546;6.912;2023-11-21T12:40:06;10.00;99.90
13652;DHT22;6899;51.546;6.912;2023-11-21T12:42:38;9.80;99.90
13652;DHT22;6899;51.546;6.912;2023-11-21T12:45:18;9.80;99.90
13652;DHT22;6899;51.546;6.912;2023-11-21T12:47:47;9.80;99.90
13652;DHT22;6899;51.546;6.912;2023-11-21T12:50:19;9.90;99.90
13652;DHT22;6899;51.546;6.912;2023-11-21T12:52:51;9.90;99.90
13652;DHT22;6899;51.546;6.912;2023-11-21T12:55:20;9.90;99.90
13652;DHT22;6899;51.546;6.912;2023-11-21T12:57:49;9.80;99.90
13652;DHT22;6899;51.546;6.912;2023-11-21T13:00:19;9.80;99.90
13652;DHT22;6899;51.546;6.912;2023-11-21T13:02:54;9.80;99.90
13652;DHT22;6899;51.546;6.912;2023-11-21T13:05:29;9.70;99.90
13652;DHT22;6899;51.546;6.912;2023-11-21T13:07:57;9.60;99.90
13652;DHT22;6899;51.546;6.912;2023-11-21T13:10:26;9.50;99.90
13652;DHT22;6899;51.546;6.912;2023-11-21T13:12:59;9.50;99.90
13652;DHT22;6899;51.546;6.912;2023-11-21T13:15:27;9.50;99.90
13652;DHT22;6899;51.546;6.912;2023-11-21T13:17:57;9.40;99.90
13652;DHT22;6899;51.546;6.912;2023-11-21T13:20:24;9.40;99.90
13652;DHT22;6899;51.546;6.912;2023-11-21T13:22:55;9.50;99.90
13652;DHT22;6899;51.546;6.912;2023-11-21T13:25:25;9.50;99.90
13652;DHT22;6899;51.546;6.912;2023-11-21T13:27:53;9.60;99.90
13652;DHT22;6899;51.546;6.912;2023-11-21T13:30:20;9.60;99.90
13652;DHT22;6899;51.546;6.912;2023-11-21T13:32:52;9.60;99.90
13652;DHT22;6899;51.546;6.912;2023-11-21T13:35:23;9.60;99.90
13652;DHT22;6899;51.546;6.912;2023-11-21T13:38:04;9.60;99.90
13652;DHT22;6899;51.546;6.912;2023-11-21T13:40:32;9.50;99.90
13652;DHT22;6899;51.546;6.912;2023-11-21T13:43:05;9.50;99.90
13652;DHT22;6899;51.546;6.912;2023-11-21T13:45:35;9.50;99.90
13652;DHT22;6899;51.546;6.912;2023-11-21T13:48:02;9.40;99.90
13652;DHT22;6899;51.546;6.912;2023-11-21T13:50:33;9.40;99.90
13652;DHT22;6899;51.546;6.912;2023-11-21T13:53:03;9.30;99.90
13652;DHT22;6899;51.546;6.912;2023-11-21T13:55:36;9.30;99.90
13652;DHT22;6899;51.546;6.912;2023-11-21T13:58:05;9.20;99.90
13652;DHT22;6899;51.546;6.912;2023-11-21T14:00:37;9.30;99.90
13652;DHT22;6899;51.546;6.912;2023-11-21T14:03:10;9.20;99.90
13652;DHT22;6899;51.546;6.912;2023-11-21T14:05:44;9.30;99.90
13652;DHT22;6899;51.546;6.912;2023-11-21T14:08:14;9.30;99.90
13652;DHT22;6899;51.546;6.912;2023-11-21T14:10:45;9.30;99.90
13652;DHT22;6899;51.546;6.912;2023-11-21T14:13:16;9.30;99.90
13652;DHT22;6899;51.546;6.912;2023-11-21T14:15:45;9.30;99.90
13652;DHT22;6899;51.546;6.912;2023-11-21T14:18:16;9.20;99.90
13652;DHT22;6899;51.546;6.912;2023-11-21T14:20:51;9.20;99.90
13652;DHT22;6899;51.546;6.912;2023-11-21T14:23:19;9.20;99.90
13652;DHT22;6899;51.546;6.912;2023-11-21T14:25:47;9.20;99.90
13652;DHT22;6899;51.546;6.912;2023-11-21T14:28:13;9.10;99.90
13652;DHT22;6899;51.546;6.912;2023-11-21T14:30:40;9.10;99.90
13652;DHT22;6899;51.546;6.912;2023-11-21T14:33:07;9.00;99.90
13652;DHT22;6899;51.546;6.912;2023-11-21T14:35:37;9.00;99.90
13652;DHT22;6899;51.546;6.912;2023-11-21T14:38:03;9.00;99.90
13652;DHT22;6899;51.546;6.912;2023-11-21T14:40:36;8.90;99.90
13652;DHT22;6899;51.546;6.912;2023-11-21T14:43:03;8.90;99.90
13652;DHT22;6899;51.546;6.912;2023-11-21T14:45:32;8.90;99.90
13652;DHT22;6899;51.546;6.912;2023-11-21T14:47:59;8.80;99.90
13652;DHT22;6899;51.546;6.912;2023-11-21T14:50:33;8.70;99.90
13652;DHT22;6899;51.546;6.912;2023-11-21T14:53:16;8.80;99.90
13652;DHT22;6899;51.546;6.912;2023-11-21T14:55:52;8.80;99.90
13652;DHT22;6899;51.546;6.912;2023-11-21T14:58:23;8.70;99.90
13652;DHT22;6899;51.546;6.912;2023-11-21T15:00:55;8.70;99.90
13652;DHT22;6899;51.546;6.912;2023-11-21T15:03:24;8.70;99.90
13652;DHT22;6899;51.546;6.912;2023-11-21T15:06:09;8.60;99.90
13652;DHT22;6899;51.546;6.912;2023-11-21T15:08:54;8.60;99.90
13652;DHT22;6899;51.546;6.912;2023-11-21T15:11:39;8.50;99.90
13652;DHT22;6899;51.546;6.912;2023-11-21T15:14:07;8.50;99.90
13652;DHT22;6899;51.546;6.912;2023-11-21T15:16:35;8.40;99.90
13652;DHT22;6899;51.546;6.912;2023-11-21T15:19:05;8.40;99.90
13652;DHT22;6899;51.546;6.912;2023-11-21T15:21:32;8.40;99.90
13652;DHT22;6899;51.546;6.912;2023-11-21T15:23:59;8.40;99.90
13652;DHT22;6899;51.546;6.912;2023-11-21T15:26:26;8.30;99.90
13652;DHT22;6899;51.546;6.912;2023-11-21T15:28:55;8.30;99.90
13652;DHT22;6899;51.546;6.912;2023-11-21T15:31:22;8.30;99.90
13652;DHT22;6899;51.546;6.912;2023-11-21T15:33:50;8.30;99.90
13652;DHT22;6899;51.546;6.912;2023-11-21T15:36:17;8.20;99.90
13652;DHT22;6899;51.546;6.912;2023-11-21T15:38:45;8.20;99.90
13652;DHT22;6899;51.546;6.912;2023-11-21T15:41:12;8.20;99.90
13652;DHT22;6899;51.546;6.912;2023-11-21T15:43:38;8.20;99.90
13652;DHT22;6899;51.546;6.912;2023-11-21T15:46:07;8.10;99.90
13652;DHT22;6899;51.546;6.912;2023-11-21T15:48:34;8.10;99.90
13652;DHT22;6899;51.546;6.912;2023-11-21T15:51:02;8.10;99.90
13652;DHT22;6899;51.546;6.912;2023-11-21T15:53:30;8.10;99.90
13652;DHT22;6899;51.546;6.912;2023-11-21T15:55:57;8.00;99.90
13652;DHT22;6899;51.546;6.912;2023-11-21T15:58:24;8.00;99.90
13652;DHT22;6899;51.546;6.912;2023-11-21T16:00:51;8.00;99.90
13652;DHT22;6899;51.546;6.912;2023-11-21T16:03:20;8.00;99.90
13652;DHT22;6899;51.546;6.912;2023-11-21T16:05:47;7.90;99.90
13652;DHT22;6899;51.546;6.912;2023-11-21T16:08:14;7.90;99.90